createdAt,value
2019-06-18T00:01:06.804Z,13.79
2019-06-18T00:02:20.832Z,13.85
2019-06-18T00:03:33.468Z,13.8
2019-06-18T00:04:45.959Z,13.85
2019-06-18T00:06:00.556Z,13.89
2019-06-18T00:07:11.126Z,13.87
2019-06-18T00:08:22.526Z,13.79
2019-06-18T00:09:34.115Z,13.71
2019-06-18T00:10:46.097Z,13.78
2019-06-18T00:12:00.517Z,13.75
2019-06-18T00:13:11.242Z,13.67
2019-06-18T00:14:23.265Z,13.71
2019-06-18T00:15:54.422Z,13.68
2019-06-18T00:17:06.581Z,13.52
2019-06-18T00:18:20.828Z,13.5
2019-06-18T00:19:31.361Z,13.49
2019-06-18T00:20:44.124Z,13.45
2019-06-18T00:21:56.301Z,13.45
2019-06-18T00:23:11.888Z,13.45
2019-06-18T00:24:23.133Z,13.42
2019-06-18T00:25:35.643Z,13.36
2019-06-18T00:26:50.644Z,13.33
2019-06-18T00:28:01.685Z,13.33
2019-06-18T00:29:13.562Z,13.3
2019-06-18T00:30:27.355Z,13.3
2019-06-18T00:31:40.517Z,13.33
2019-06-18T00:32:51.076Z,13.43
2019-06-18T00:34:03.405Z,13.43
2019-06-18T00:35:15.684Z,13.36
2019-06-18T00:36:26.711Z,13.37
2019-06-18T00:37:40.534Z,13.27
2019-06-18T00:38:50.596Z,13.42
2019-06-18T00:40:00.550Z,13.39
2019-06-18T00:41:14.378Z,13.33
2019-06-18T00:42:27.154Z,13.37
2019-06-18T00:43:41.899Z,13.43
2019-06-18T00:44:52.347Z,13.42
2019-06-18T00:46:10.601Z,13.39
2019-06-18T00:47:21.661Z,13.37
2019-06-18T00:48:33.288Z,13.39
2019-06-18T00:49:46.700Z,13.46
2019-06-18T00:50:58.509Z,13.45
2019-06-18T00:52:10.108Z,13.39
2019-06-18T00:53:22.635Z,13.4
2019-06-18T00:54:36.916Z,13.49
2019-06-18T00:55:49.813Z,13.54
2019-06-18T00:57:00.970Z,13.49
2019-06-18T00:58:13.028Z,13.4
2019-06-18T00:59:26.845Z,13.45
2019-06-18T01:00:39.405Z,13.47
2019-06-18T01:01:51.862Z,13.36
2019-06-18T01:03:04.418Z,13.47
2019-06-18T01:04:17.599Z,13.42
2019-06-18T01:05:29.419Z,13.3
2019-06-18T01:06:40.555Z,13.33
2019-06-18T01:07:52.834Z,13.26
2019-06-18T01:09:07.128Z,13.28
2019-06-18T01:10:19.330Z,13.3
2019-06-18T01:11:29.785Z,13.26
2019-06-18T01:12:42.725Z,13.28
2019-06-18T01:13:57.472Z,13.31
2019-06-18T01:15:09.391Z,13.3
2019-06-18T01:16:27.968Z,13.33
2019-06-18T01:17:39.696Z,13.27
2019-06-18T01:18:52.097Z,13.31
2019-06-18T01:20:06.835Z,13.28
2019-06-18T01:21:19.746Z,13.36
2019-06-18T01:22:32.805Z,13.33
2019-06-18T01:24:01.231Z,13.31
2019-06-18T01:25:14.635Z,13.27
2019-06-18T01:26:27.065Z,13.31
2019-06-18T01:27:38.206Z,13.28
2019-06-18T01:28:52.956Z,13.36
2019-06-18T01:30:06.096Z,13.33
2019-06-18T01:31:18.116Z,13.31
2019-06-18T01:32:32.693Z,13.33
2019-06-18T01:33:45.143Z,13.26
2019-06-18T01:34:58.503Z,13.27
2019-06-18T01:36:12.587Z,13.31
2019-06-18T01:37:25.182Z,13.23
2019-06-18T01:38:37.461Z,13.26
2019-06-18T01:39:48.637Z,13.12
2019-06-18T01:41:02.401Z,13.19
2019-06-18T01:42:14.910Z,13.17
2019-06-18T01:43:27.747Z,13.19
2019-06-18T01:44:38.644Z,13.08
2019-06-18T01:45:52.290Z,13.2
2019-06-18T01:47:05.004Z,13.16
2019-06-18T01:48:17.576Z,13.21
2019-06-18T01:49:32.398Z,13.21
2019-06-18T01:50:43.015Z,13.2
2019-06-18T01:51:55.006Z,13.17
2019-06-18T01:53:05.996Z,13.17
2019-06-18T01:54:18.769Z,13.16
2019-06-18T01:55:33.543Z,13.16
2019-06-18T01:56:46.558Z,13.17
2019-06-18T01:57:58.614Z,13.13
2019-06-18T01:59:12.529Z,13.17
2019-06-18T02:00:25.729Z,13.21
2019-06-18T02:01:38.526Z,13.24
2019-06-18T02:02:53.620Z,13.19
2019-06-18T02:04:05.853Z,13.26
2019-06-18T02:05:18.426Z,13.26
2019-06-18T02:06:32.907Z,13.27
2019-06-18T02:07:44.715Z,13.24
2019-06-18T02:08:57.306Z,13.28
2019-06-18T02:10:08.301Z,13.31
2019-06-18T02:11:22.577Z,13.33
2019-06-18T02:12:34.743Z,13.39
2019-06-18T02:13:47.312Z,13.26
2019-06-18T02:14:57.996Z,13.33
2019-06-18T02:16:12.950Z,13.28
2019-06-18T02:17:25.519Z,13.26
2019-06-18T02:18:38.433Z,13.39
2019-06-18T02:19:52.996Z,13.39
2019-06-18T02:21:04.583Z,13.33
2019-06-18T02:22:15.581Z,13.31
2019-06-18T02:23:27.666Z,13.42
2019-06-18T02:24:40.569Z,13.36
2019-06-18T02:25:53.070Z,13.45
2019-06-18T02:27:05.679Z,13.43
2019-06-18T02:28:18.271Z,13.46
2019-06-18T02:29:32.365Z,13.5
2019-06-18T02:30:44.491Z,13.5
2019-06-18T02:31:58.594Z,13.55
2019-06-18T02:33:16.826Z,13.5
2019-06-18T02:34:29.298Z,13.57
2019-06-18T02:35:43.648Z,13.61
2019-06-18T02:36:55.589Z,13.57
2019-06-18T02:38:08.150Z,13.67
2019-06-18T02:39:22.385Z,13.62
2019-06-18T02:40:34.550Z,13.68
2019-06-18T02:41:47.395Z,13.67
2019-06-18T02:42:58.449Z,13.62
2019-06-18T02:44:12.856Z,13.64
2019-06-18T02:45:26.572Z,13.62
2019-06-18T02:46:39.040Z,13.68
2019-06-18T02:47:52.713Z,13.68
2019-06-18T02:49:05.166Z,13.68
2019-06-18T02:50:16.043Z,13.75
2019-06-18T02:51:27.943Z,13.73
2019-06-18T02:52:40.317Z,13.7
2019-06-18T02:53:53.253Z,13.6
2019-06-18T02:55:05.240Z,13.58
2019-06-18T02:56:15.612Z,13.64
2019-06-18T02:57:27.918Z,13.6
2019-06-18T02:58:42.114Z,13.71
2019-06-18T02:59:53.477Z,13.7
2019-06-18T03:01:04.855Z,13.68
2019-06-18T03:02:18.207Z,13.65
2019-06-18T03:03:32.507Z,13.8
2019-06-18T03:04:43.380Z,13.67
2019-06-18T03:05:55.521Z,13.8
2019-06-18T03:07:08.129Z,13.78
2019-06-18T03:08:22.759Z,13.76
2019-06-18T03:09:35.011Z,13.78
2019-06-18T03:10:46.066Z,13.87
2019-06-18T03:11:58.417Z,13.8
2019-06-18T03:13:13.090Z,13.89
2019-06-18T03:14:25.518Z,13.83
2019-06-18T03:15:38.910Z,13.8
2019-06-18T03:16:52.547Z,13.82
2019-06-18T03:18:05.004Z,13.82
2019-06-18T03:19:17.794Z,13.79
2019-06-18T03:20:28.411Z,13.79
2019-06-18T03:21:42.735Z,13.91
2019-06-18T03:22:55.087Z,13.91
2019-06-18T03:24:07.407Z,13.85
2019-06-18T03:25:18.632Z,13.95
2019-06-18T03:26:32.887Z,13.97
2019-06-18T03:27:46.399Z,13.97
2019-06-18T03:28:58.099Z,13.94
2019-06-18T03:30:10.196Z,13.95
2019-06-18T03:31:26.655Z,14.03
2019-06-18T03:32:40.438Z,13.97
2019-06-18T03:33:57.557Z,13.97
2019-06-18T03:35:12.577Z,14.01
2019-06-18T03:36:25.161Z,14.03
2019-06-18T03:37:38.494Z,13.94
2019-06-18T03:38:52.240Z,13.98
2019-06-18T03:40:04.984Z,13.94
2019-06-18T03:41:18.141Z,13.98
2019-06-18T03:42:29.812Z,13.97
2019-06-18T03:43:42.365Z,13.95
2019-06-18T03:44:53.744Z,13.97
2019-06-18T03:46:06.270Z,13.98
2019-06-18T03:47:17.611Z,13.94
2019-06-18T03:48:28.391Z,14.04
2019-06-18T03:49:39.888Z,14.11
2019-06-18T03:50:53.312Z,14.05
2019-06-18T03:52:05.783Z,14.07
2019-06-18T03:53:18.603Z,14.11
2019-06-18T03:54:33.515Z,14.12
2019-06-18T03:55:45.197Z,14.05
2019-06-18T03:56:58.004Z,14.18
2019-06-18T03:58:12.656Z,14.15
2019-06-18T03:59:24.832Z,14.15
2019-06-18T04:00:36.075Z,14.2
2019-06-18T04:01:49.207Z,14.26
2019-06-18T04:03:03.262Z,14.3
2019-06-18T04:04:15.511Z,14.33
2019-06-18T04:05:27.839Z,14.37
2019-06-18T04:06:40.747Z,14.44
2019-06-18T04:07:53.462Z,14.37
2019-06-18T04:09:04.704Z,14.38
2019-06-18T04:10:17.423Z,14.41
2019-06-18T04:11:28.301Z,14.4
2019-06-18T04:12:40.259Z,14.28
2019-06-18T04:13:53.090Z,14.26
2019-06-18T04:15:05.649Z,14.25
2019-06-18T04:16:18.861Z,14.3
2019-06-18T04:17:32.135Z,14.28
2019-06-18T04:18:44.650Z,14.25
2019-06-18T04:19:54.983Z,14.3
2019-06-18T04:21:07.166Z,14.25
2019-06-18T04:22:18.408Z,14.25
2019-06-18T04:23:32.734Z,14.28
2019-06-18T04:24:45.248Z,14.25
2019-06-18T04:25:55.861Z,14.22
2019-06-18T04:27:08.540Z,14.22
2019-06-18T04:28:22.442Z,14.16
2019-06-18T04:29:35.890Z,14.19
2019-06-18T04:30:48.761Z,14.18
2019-06-18T04:32:02.675Z,14.05
2019-06-18T04:33:15.699Z,14.11
2019-06-18T04:34:28.252Z,14.16
2019-06-18T04:35:42.398Z,14.07
2019-06-18T04:36:53.201Z,14.08
2019-06-18T04:38:05.111Z,14.11
2019-06-18T04:39:17.994Z,14.07
2019-06-18T04:40:32.278Z,14.11
2019-06-18T04:41:43.156Z,14.13
2019-06-18T04:42:54.729Z,14.15
2019-06-18T04:44:06.099Z,14.18
2019-06-18T04:45:18.459Z,14.25
2019-06-18T04:46:32.551Z,14.26
2019-06-18T04:47:45.732Z,14.3
2019-06-18T04:48:58.111Z,14.34
2019-06-18T04:50:13.432Z,14.4
2019-06-18T04:51:25.405Z,14.34
2019-06-18T04:52:37.822Z,14.4
2019-06-18T04:53:53.339Z,14.44
2019-06-18T04:55:05.811Z,14.49
2019-06-18T04:56:18.652Z,14.58
2019-06-18T04:57:30.116Z,14.62
2019-06-18T04:58:43.158Z,14.67
2019-06-18T04:59:55.679Z,14.71
2019-06-18T05:01:08.205Z,14.71
2019-06-18T05:02:22.752Z,14.89
2019-06-18T05:03:35.381Z,14.93
2019-06-18T05:04:48.437Z,14.92
2019-06-18T05:05:59.935Z,14.89
2019-06-18T05:07:13.318Z,14.97
2019-06-18T05:08:25.192Z,14.96
2019-06-18T05:09:37.433Z,15.07
2019-06-18T05:10:48.326Z,15.07
2019-06-18T05:12:03.370Z,15.15
2019-06-18T05:13:16.272Z,15.22
2019-06-18T05:14:28.064Z,15.25
2019-06-18T05:15:43.357Z,15.39
2019-06-18T05:16:55.664Z,15.3
2019-06-18T05:18:08.001Z,15.43
2019-06-18T05:19:22.668Z,15.37
2019-06-18T05:20:35.370Z,15.48
2019-06-18T05:21:47.788Z,15.5
2019-06-18T05:22:58.615Z,15.62
2019-06-18T05:24:12.852Z,15.5
2019-06-18T05:25:25.205Z,15.52
2019-06-18T05:26:37.470Z,15.59
2019-06-18T05:27:52.678Z,15.47
2019-06-18T05:29:05.284Z,15.55
2019-06-18T05:30:17.826Z,15.63
2019-06-18T05:31:30.155Z,15.55
2019-06-18T05:32:43.130Z,15.52
2019-06-18T05:33:55.319Z,15.63
2019-06-18T05:35:08.798Z,15.62
2019-06-18T05:36:20.245Z,15.69
2019-06-18T05:37:32.900Z,15.69
2019-06-18T05:38:45.522Z,15.78
2019-06-18T05:39:58.347Z,15.78
2019-06-18T05:41:13.546Z,15.84
2019-06-18T05:42:25.613Z,15.84
2019-06-18T05:43:38.328Z,15.83
2019-06-18T05:44:53.276Z,15.88
2019-06-18T05:46:05.965Z,15.94
2019-06-18T05:47:18.040Z,15.99
2019-06-18T05:48:33.180Z,15.94
2019-06-18T05:50:06.055Z,15.99
2019-06-18T05:51:18.128Z,16.1
2019-06-18T05:52:42.478Z,16.05
2019-06-18T05:53:54.951Z,16.05
2019-06-18T05:55:09.064Z,15.92
2019-06-18T05:56:20.133Z,15.96
2019-06-18T05:57:32.785Z,16
2019-06-18T05:58:45.190Z,16.09
2019-06-18T05:59:57.968Z,16.08
2019-06-18T06:01:13.032Z,15.99
2019-06-18T06:02:25.140Z,15.9
2019-06-18T06:03:37.800Z,15.99
2019-06-18T06:04:50.108Z,15.96
2019-06-18T06:06:03.086Z,15.92
2019-06-18T06:07:16.075Z,15.96
2019-06-18T06:08:28.092Z,16.02
2019-06-18T06:09:43.143Z,16.09
2019-06-18T06:10:55.413Z,16.22
2019-06-18T06:12:07.999Z,16.28
2019-06-18T06:13:18.621Z,16.31
2019-06-18T06:14:32.971Z,16.49
2019-06-18T06:15:45.509Z,16.41
2019-06-18T06:16:59.512Z,16.51
2019-06-18T06:18:12.567Z,16.49
2019-06-18T06:19:24.862Z,16.39
2019-06-18T06:20:37.778Z,16.28
2019-06-18T06:21:53.197Z,16.32
2019-06-18T06:23:05.769Z,16.26
2019-06-18T06:24:18.830Z,16.32
2019-06-18T06:25:34.325Z,16.29
2019-06-18T06:26:45.713Z,16.26
2019-06-18T06:27:58.529Z,16.21
2019-06-18T06:29:10.707Z,16.25
2019-06-18T06:30:25.464Z,16.34
2019-06-18T06:31:37.264Z,16.32
2019-06-18T06:32:48.696Z,16.4
2019-06-18T06:34:02.847Z,16.47
2019-06-18T06:35:16.109Z,16.41
2019-06-18T06:36:28.088Z,16.46
2019-06-18T06:37:38.871Z,16.58
2019-06-18T06:38:53.184Z,16.62
2019-06-18T06:40:06.621Z,16.79
2019-06-18T06:41:18.559Z,16.58
2019-06-18T06:42:32.360Z,16.69
2019-06-18T06:43:43.067Z,16.74
2019-06-18T06:44:55.198Z,16.79
2019-06-18T06:46:06.419Z,16.84
2019-06-18T06:47:22.385Z,16.86
2019-06-18T06:48:35.287Z,17.01
2019-06-18T06:49:48.009Z,17.09
2019-06-18T06:51:02.847Z,17.07
2019-06-18T06:52:15.304Z,17.23
2019-06-18T06:53:28.190Z,17.23
2019-06-18T06:54:43.320Z,17.16
2019-06-18T06:55:55.558Z,17.27
2019-06-18T06:57:08.222Z,17.31
2019-06-18T06:58:35.828Z,17.27
2019-06-18T06:59:48.592Z,17.31
2019-06-18T07:01:03.363Z,17.34
2019-06-18T07:02:16.274Z,17.23
2019-06-18T07:03:28.880Z,17.24
2019-06-18T07:04:42.616Z,17.31
2019-06-18T07:05:55.176Z,17.23
2019-06-18T07:07:07.717Z,17.23
2019-06-18T07:08:18.519Z,17.28
2019-06-18T07:09:33.161Z,17.27
2019-06-18T07:10:45.977Z,17.35
2019-06-18T07:11:58.932Z,17.34
2019-06-18T07:13:10.140Z,17.34
2019-06-18T07:14:20.523Z,17.35
2019-06-18T07:15:31.556Z,17.3
2019-06-18T07:16:46.694Z,17.5
2019-06-18T07:17:58.342Z,17.57
2019-06-18T07:19:12.595Z,17.5
2019-06-18T07:20:23.262Z,17.53
2019-06-18T07:21:35.416Z,17.52
2019-06-18T07:22:49.080Z,17.47
2019-06-18T07:24:02.831Z,17.57
2019-06-18T07:25:14.790Z,17.63
2019-06-18T07:26:26.285Z,17.57
2019-06-18T07:27:39.079Z,17.53
2019-06-18T07:28:53.013Z,17.52
2019-06-18T07:30:06.753Z,17.54
2019-06-18T07:31:18.552Z,17.75
2019-06-18T07:32:33.314Z,17.6
2019-06-18T07:33:46.350Z,17.71
2019-06-18T07:34:58.689Z,17.76
2019-06-18T07:36:12.422Z,17.84
2019-06-18T07:37:23.321Z,17.79
2019-06-18T07:38:35.177Z,17.86
2019-06-18T07:39:47.874Z,17.91
2019-06-18T07:41:02.593Z,17.87
2019-06-18T07:42:15.941Z,17.76
2019-06-18T07:43:28.389Z,17.79
2019-06-18T07:44:42.740Z,17.68
2019-06-18T07:45:55.336Z,17.69
2019-06-18T07:47:08.995Z,17.63
2019-06-18T07:48:22.805Z,17.59
2019-06-18T07:49:35.489Z,17.6
2019-06-18T07:50:49.198Z,17.65
2019-06-18T07:52:02.929Z,17.65
2019-06-18T07:53:15.662Z,17.68
2019-06-18T07:54:27.846Z,17.66
2019-06-18T07:55:39.101Z,17.72
2019-06-18T07:56:52.614Z,17.73
2019-06-18T07:58:05.023Z,17.8
2019-06-18T07:59:18.154Z,17.88
2019-06-18T08:00:33.296Z,18
2019-06-18T08:01:45.875Z,17.97
2019-06-18T08:02:57.924Z,17.94
2019-06-18T08:04:13.291Z,18.06
2019-06-18T08:05:24.886Z,18.11
2019-06-18T08:06:35.451Z,18.11
2019-06-18T08:07:48.009Z,18.08
2019-06-18T08:09:03.052Z,18.11
2019-06-18T08:10:15.455Z,18.15
2019-06-18T08:11:27.705Z,18.24
2019-06-18T08:12:38.939Z,18.27
2019-06-18T08:13:53.287Z,18.36
2019-06-18T08:15:06.574Z,18.37
2019-06-18T08:16:18.462Z,18.26
2019-06-18T08:17:33.030Z,18.24
2019-06-18T08:18:44.780Z,18.37
2019-06-18T08:19:56.562Z,18.36
2019-06-18T08:21:09.292Z,18.51
2019-06-18T08:22:25.686Z,18.48
2019-06-18T08:23:37.820Z,18.63
2019-06-18T08:24:49.007Z,18.73
2019-06-18T08:26:02.865Z,18.76
2019-06-18T08:27:14.878Z,18.86
2019-06-18T08:28:27.265Z,18.78
2019-06-18T08:29:38.299Z,18.81
2019-06-18T08:30:50.162Z,19
2019-06-18T08:32:08.342Z,19.3
2019-06-18T08:33:22.888Z,19.41
2019-06-18T08:34:35.394Z,19.59
2019-06-18T08:35:48.078Z,19.63
2019-06-18T08:36:58.791Z,19.75
2019-06-18T08:38:12.772Z,19.77
2019-06-18T08:39:24.948Z,19.89
2019-06-18T08:40:35.458Z,19.99
2019-06-18T08:41:48.196Z,19.99
2019-06-18T08:42:59.798Z,20
2019-06-18T08:44:13.185Z,20.02
2019-06-18T08:45:25.010Z,19.94
2019-06-18T08:46:37.631Z,19.82
2019-06-18T08:47:48.751Z,19.78
2019-06-18T08:49:02.766Z,19.7
2019-06-18T08:50:15.471Z,19.71
2019-06-18T08:51:27.847Z,19.55
2019-06-18T08:52:38.613Z,19.42
2019-06-18T08:53:53.255Z,19.2
2019-06-18T08:55:05.074Z,19.15
2019-06-18T08:56:18.783Z,19.23
2019-06-18T08:57:32.459Z,19.29
2019-06-18T08:58:42.905Z,19.23
2019-06-18T08:59:55.008Z,19.05
2019-06-18T09:01:06.118Z,19.2
2019-06-18T09:02:18.333Z,19.23
2019-06-18T09:03:34.989Z,19.23
2019-06-18T09:04:47.287Z,19.2
2019-06-18T09:05:58.659Z,19.23
2019-06-18T09:07:13.558Z,19.15
2019-06-18T09:08:25.260Z,19.15
2019-06-18T09:09:36.992Z,19.01
2019-06-18T09:10:47.599Z,19.15
2019-06-18T09:11:58.994Z,19.12
2019-06-18T09:13:13.268Z,19.08
2019-06-18T09:14:26.142Z,19
2019-06-18T09:15:38.381Z,19.05
2019-06-18T09:16:52.640Z,18.83
2019-06-18T09:18:03.601Z,18.91
2019-06-18T09:19:15.704Z,18.86
2019-06-18T09:20:28.304Z,18.79
2019-06-18T09:21:39.076Z,18.83
2019-06-18T09:22:52.890Z,18.74
2019-06-18T09:24:06.002Z,18.71
2019-06-18T09:25:18.869Z,18.85
2019-06-18T09:26:32.632Z,18.81
2019-06-18T09:27:43.764Z,18.73
2019-06-18T09:28:55.924Z,18.68
2019-06-18T09:30:08.555Z,18.55
2019-06-18T09:31:20.225Z,18.51
2019-06-18T09:32:33.032Z,18.39
2019-06-18T09:33:45.475Z,18.43
2019-06-18T09:34:58.186Z,18.48
2019-06-18T09:36:13.025Z,18.52
2019-06-18T09:37:24.969Z,18.45
2019-06-18T09:38:38.128Z,18.26
2019-06-18T09:39:53.469Z,18.21
2019-06-18T09:41:04.998Z,18.19
2019-06-18T09:42:18.044Z,18.18
2019-06-18T09:43:29.980Z,18.08
2019-06-18T09:44:42.478Z,18.12
2019-06-18T09:45:53.171Z,18.13
2019-06-18T09:47:05.579Z,18.08
2019-06-18T09:48:18.240Z,17.95
2019-06-18T09:49:32.621Z,17.98
2019-06-18T09:50:45.389Z,18.06
2019-06-18T09:51:58.031Z,18.11
2019-06-18T09:53:13.055Z,18.21
2019-06-18T09:54:28.084Z,18.27
2019-06-18T09:55:43.078Z,18.28
2019-06-18T09:56:55.362Z,18.31
2019-06-18T09:58:08.470Z,18.26
2019-06-18T09:59:22.462Z,18.26
2019-06-18T10:00:33.152Z,18.21
2019-06-18T10:01:45.661Z,18.16
2019-06-18T10:02:59.040Z,18.09
2019-06-18T10:04:13.117Z,18
2019-06-18T10:05:25.166Z,17.94
2019-06-18T10:06:37.297Z,17.94
2019-06-18T10:07:48.791Z,17.86
2019-06-18T10:09:00.007Z,17.84
2019-06-18T10:10:10.693Z,18
2019-06-18T10:11:20.689Z,17.93
2019-06-18T10:12:32.748Z,17.97
2019-06-18T10:13:45.098Z,17.98
2019-06-18T10:14:55.985Z,18.05
2019-06-18T10:16:09.074Z,18.23
2019-06-18T10:17:23.235Z,18.27
2019-06-18T10:18:35.807Z,18.21
2019-06-18T10:19:48.337Z,18.16
2019-06-18T10:21:02.391Z,18.12
2019-06-18T10:22:16.222Z,17.88
2019-06-18T10:23:26.293Z,17.8
2019-06-18T10:24:38.038Z,17.44
2019-06-18T10:25:52.594Z,17.14
2019-06-18T10:27:05.159Z,17.2
2019-06-18T10:28:17.793Z,16.97
2019-06-18T10:30:06.331Z,16.55
2019-06-18T10:31:19.435Z,16.62
2019-06-18T10:32:31.039Z,16.43
2019-06-18T10:33:42.693Z,16.16
2019-06-18T10:34:55.595Z,15.96
2019-06-18T10:36:07.770Z,15.84
2019-06-18T10:37:17.728Z,15.83
2019-06-18T10:38:27.672Z,15.6
2019-06-18T10:39:43.066Z,15.57
2019-06-18T10:40:55.279Z,15.57
2019-06-18T10:42:06.357Z,15.45
2019-06-18T10:43:18.411Z,15.39
2019-06-18T10:44:32.984Z,15.36
2019-06-18T10:45:45.133Z,15.29
2019-06-18T10:46:59.098Z,15.43
2019-06-18T10:48:12.857Z,15.29
2019-06-18T10:49:25.235Z,15.29
2019-06-18T10:50:37.742Z,15.32
2019-06-18T10:52:03.459Z,15.39
2019-06-18T10:53:15.301Z,15.43
2019-06-18T10:54:28.184Z,15.36
2019-06-18T10:55:43.138Z,15.45
2019-06-18T10:56:55.597Z,15.6
2019-06-18T10:58:08.454Z,15.7
2019-06-18T10:59:22.489Z,15.78
2019-06-18T11:00:35.168Z,15.8
2019-06-18T11:01:45.924Z,15.76
2019-06-18T11:02:58.130Z,15.84
2019-06-18T11:04:12.663Z,15.87
2019-06-18T11:05:22.823Z,15.96
2019-06-18T11:06:35.568Z,15.91
2019-06-18T11:08:08.778Z,16.03
2019-06-18T11:09:23.129Z,16.02
2019-06-18T11:10:33.240Z,16.09
2019-06-18T11:11:43.185Z,16.1
2019-06-18T11:12:53.137Z,16.05
2019-06-18T11:14:18.562Z,15.98
2019-06-18T11:15:33.090Z,16.09
2019-06-18T11:16:45.324Z,16.08
2019-06-18T11:17:55.972Z,15.88
2019-06-18T11:19:08.266Z,16
2019-06-18T11:20:22.711Z,15.83
2019-06-18T11:21:35.983Z,15.94
2019-06-18T11:22:48.717Z,15.87
2019-06-18T11:24:03.773Z,15.85
2019-06-18T11:25:17.317Z,15.96
2019-06-18T11:26:28.994Z,16.08
2019-06-18T11:27:42.460Z,16.13
2019-06-18T11:28:53.544Z,16.18
2019-06-18T11:30:06.788Z,16.18
2019-06-18T11:31:18.748Z,16.24
2019-06-18T11:32:31.498Z,16.26
2019-06-18T11:33:41.492Z,16.29
2019-06-18T11:34:51.487Z,16.4
2019-06-18T11:36:03.654Z,16.25
2019-06-18T11:37:13.873Z,16.39
2019-06-18T11:38:25.113Z,16.41
2019-06-18T11:39:37.800Z,16.34
2019-06-18T11:40:48.528Z,16.26
2019-06-18T11:42:03.723Z,16.41
2019-06-18T11:43:15.942Z,16.36
2019-06-18T11:44:28.154Z,16.4
2019-06-18T11:45:38.111Z,16.47
2019-06-18T11:46:53.199Z,16.47
2019-06-18T11:48:08.324Z,16.54
2019-06-18T11:49:20.172Z,16.58
2019-06-18T11:50:31.063Z,16.77
2019-06-18T11:51:43.273Z,16.89
2019-06-18T11:52:55.343Z,17.09
2019-06-18T11:54:08.285Z,17.27
2019-06-18T11:55:22.982Z,17.56
2019-06-18T11:56:35.235Z,17.8
2019-06-18T11:57:47.423Z,17.97
2019-06-18T11:58:58.549Z,18.21
2019-06-18T12:00:13.049Z,18.46
2019-06-18T12:01:25.479Z,18.58
2019-06-18T12:02:35.870Z,18.85
2019-06-18T12:03:48.097Z,19
2019-06-18T12:05:02.798Z,19.22
2019-06-18T12:06:15.204Z,19.39
2019-06-18T12:07:24.933Z,19.67
2019-06-18T12:08:34.700Z,19.79
2019-06-18T12:09:44.646Z,20.12
2019-06-18T12:11:07.467Z,20.52
2019-06-18T12:12:18.876Z,20.93
2019-06-18T12:13:33.789Z,21.17
2019-06-18T12:14:45.365Z,21.37
2019-06-18T12:15:55.700Z,21.88
2019-06-18T12:17:08.980Z,22.12
2019-06-18T12:18:22.541Z,22.4
2019-06-18T12:19:33.359Z,22.58
2019-06-18T12:20:45.792Z,22.73
2019-06-18T12:21:58.685Z,23.14
2019-06-18T12:23:12.729Z,23.67
2019-06-18T12:24:26.106Z,24.11
2019-06-18T12:25:38.369Z,24.26
2019-06-18T12:26:53.360Z,24.21
2019-06-18T12:28:05.903Z,24.24
2019-06-18T12:29:19.025Z,24.26
2019-06-18T12:30:30.945Z,24.62
2019-06-18T12:31:40.917Z,24.61
2019-06-18T12:32:58.996Z,24.47
2019-06-18T12:34:13.270Z,24.48
2019-06-18T12:35:29.451Z,24.63
2019-06-18T12:36:43.178Z,24.69
2019-06-18T12:37:56.133Z,24.69
2019-06-18T12:39:08.863Z,24.59
2019-06-18T12:40:23.611Z,24.59
2019-06-18T12:41:35.626Z,24.62
2019-06-18T12:42:47.779Z,24.61
2019-06-18T12:43:58.662Z,24.63
2019-06-18T12:45:12.699Z,24.75
2019-06-18T12:46:25.468Z,24.71
2019-06-18T12:47:38.292Z,24.89
2019-06-18T12:48:52.659Z,24.96
2019-06-18T12:50:03.974Z,25.3
2019-06-18T12:51:16.258Z,25.74
2019-06-18T12:52:28.140Z,26.22
2019-06-18T12:53:51.967Z,26.67
2019-06-18T12:55:18.520Z,27.23
2019-06-18T12:56:33.072Z,27.85
2019-06-18T12:57:45.641Z,28.41
2019-06-18T12:58:58.209Z,28.52
2019-06-18T13:00:38.553Z,28.64
2019-06-18T13:01:49.932Z,28.62
2019-06-18T13:03:03.384Z,28.68
2019-06-18T13:04:15.568Z,28.5
2019-06-18T13:05:27.740Z,28.31
2019-06-18T13:06:38.473Z,28.16
2019-06-18T13:07:53.359Z,27.83
2019-06-18T13:09:05.851Z,27.55
2019-06-18T13:10:18.593Z,27.48
2019-06-18T13:11:32.885Z,27.29
2019-06-18T13:12:45.924Z,27.28
2019-06-18T13:13:58.228Z,27.2
2019-06-18T13:15:17.817Z,27.26
2019-06-18T13:16:33.200Z,27.18
2019-06-18T13:17:45.977Z,27.08
2019-06-18T13:18:58.659Z,27.11
2019-06-18T13:20:13.294Z,27.13
2019-06-18T13:21:26.052Z,27.26
2019-06-18T13:22:37.549Z,27.16
2019-06-18T13:23:50.219Z,27.15
2019-06-18T13:25:07.090Z,27.01
2019-06-18T13:26:17.987Z,26.73
2019-06-18T13:27:30.130Z,26.46
2019-06-18T13:28:43.004Z,26.11
2019-06-18T13:29:55.736Z,25.92
2019-06-18T13:31:12.931Z,25.78
2019-06-18T13:32:25.274Z,25.55
2019-06-18T13:33:35.331Z,25.4
2019-06-18T13:34:48.487Z,25.24
2019-06-18T13:36:03.294Z,25.07
2019-06-18T13:37:15.166Z,24.92
2019-06-18T13:38:26.186Z,24.5
2019-06-18T13:39:38.884Z,24.37
2019-06-18T13:40:53.844Z,24.25
2019-06-18T13:42:06.492Z,24.04
2019-06-18T13:43:18.592Z,23.76
2019-06-18T13:44:32.908Z,23.64
2019-06-18T13:45:45.408Z,23.36
2019-06-18T13:46:57.262Z,23.21
2019-06-18T13:48:08.911Z,23.08
2019-06-18T13:49:25.425Z,22.93
2019-06-18T13:50:37.531Z,22.84
2019-06-18T13:51:50.425Z,22.68
2019-06-18T13:53:03.236Z,22.58
2019-06-18T13:54:22.728Z,22.33
2019-06-18T13:55:35.594Z,22.26
2019-06-18T13:56:48.544Z,22.33
2019-06-18T13:58:02.997Z,22.3
2019-06-18T13:59:15.826Z,22.28
2019-06-18T14:00:28.395Z,22.25
2019-06-18T14:01:38.346Z,22.3
2019-06-18T14:02:48.310Z,22.19
2019-06-18T14:04:03.450Z,22.01
2019-06-18T14:05:13.597Z,22
2019-06-18T14:06:26.011Z,22
2019-06-18T14:07:42.949Z,21.85
2019-06-18T14:08:55.950Z,21.78
2019-06-18T14:10:08.320Z,21.78
2019-06-18T14:11:22.769Z,21.72
2019-06-18T14:12:35.615Z,21.63
2019-06-18T14:13:48.022Z,21.53
2019-06-18T14:14:57.602Z,21.54
2019-06-18T14:16:10.342Z,21.53
2019-06-18T14:17:23.452Z,21.56
2019-06-18T14:18:35.913Z,21.45
2019-06-18T14:19:47.806Z,21.44
2019-06-18T14:20:59.185Z,21.44
2019-06-18T14:22:09.065Z,21.41
2019-06-18T14:23:23.087Z,21.25
2019-06-18T14:24:36.033Z,21.22
2019-06-18T14:26:03.751Z,21.32
2019-06-18T14:27:13.703Z,21.38
2019-06-18T14:28:25.032Z,21.35
2019-06-18T14:29:37.667Z,21.44
2019-06-18T14:30:49.943Z,21.44
2019-06-18T14:32:03.634Z,21.51
2019-06-18T14:35:12.641Z,21.66
2019-06-18T14:36:28.839Z,21.75
2019-06-18T14:37:45.491Z,21.75
2019-06-18T14:38:58.799Z,21.84
2019-06-18T14:40:15.027Z,21.83
2019-06-18T14:41:28.567Z,21.92
2019-06-18T14:42:42.128Z,21.99
2019-06-18T14:43:52.094Z,22.04
2019-06-18T14:45:01.799Z,22.07
2019-06-18T14:46:13.698Z,22.06
2019-06-18T14:47:23.861Z,22.08
2019-06-18T14:48:33.826Z,22.21
2019-06-18T14:49:43.768Z,22.16
2019-06-18T14:50:55.621Z,22.18
2019-06-18T14:52:07.889Z,22.19
2019-06-18T14:53:22.324Z,22.21
2019-06-18T14:54:38.214Z,22.18
2019-06-18T14:55:52.220Z,22.15
2019-06-18T14:57:04.924Z,22.06
2019-06-18T14:58:15.407Z,21.92
2019-06-18T14:59:27.706Z,21.94
2019-06-18T15:00:42.574Z,21.81
2019-06-18T15:01:55.334Z,21.58
2019-06-18T15:03:09.005Z,21.54
2019-06-18T15:04:22.693Z,21.38
2019-06-18T15:05:35.132Z,21.17
2019-06-18T15:06:47.838Z,21.1
2019-06-18T15:07:58.601Z,21.05
2019-06-18T15:09:13.424Z,21.13
2019-06-18T15:10:28.990Z,21.11
2019-06-18T15:11:43.358Z,21.04
2019-06-18T15:12:55.829Z,21.07
2019-06-18T15:14:05.789Z,21.03
2019-06-18T15:15:18.017Z,20.88
2019-06-18T15:16:32.861Z,20.92
2019-06-18T15:17:45.271Z,20.89
2019-06-18T15:18:55.257Z,20.85
2019-06-18T15:20:07.983Z,20.85
2019-06-18T15:21:22.738Z,20.86
2019-06-18T15:22:37.265Z,20.75
2019-06-18T15:23:48.343Z,20.78
2019-06-18T15:25:00.606Z,20.77
2019-06-18T15:26:15.604Z,20.83
2019-06-18T15:27:27.852Z,20.92
2019-06-18T15:28:42.333Z,20.9
2019-06-18T15:29:55.080Z,21.05
2019-06-18T15:31:07.830Z,21.05
2019-06-18T15:32:18.729Z,21.13
2019-06-18T15:33:32.988Z,21.08
2019-06-18T15:34:45.288Z,21.13
2019-06-18T15:35:57.581Z,21.04
2019-06-18T15:37:09.305Z,21.07
2019-06-18T15:38:22.935Z,21.03
2019-06-18T15:39:35.183Z,21.1
2019-06-18T15:40:45.750Z,21.04
2019-06-18T15:41:55.802Z,20.9
2019-06-18T15:43:09.054Z,20.95
2019-06-18T15:44:23.037Z,20.96
2019-06-18T15:45:33.138Z,20.92
2019-06-18T15:46:45.744Z,20.9
2019-06-18T15:47:58.232Z,20.93